createdAt,value
2023-02-25T00:00:43.529Z,992.8
2023-02-25T00:01:48.688Z,992.76
2023-02-25T00:02:43.479Z,992.75
2023-02-25T00:03:43.464Z,992.79
2023-02-25T00:04:43.403Z,992.83
2023-02-25T00:05:43.353Z,992.78
2023-02-25T00:06:43.325Z,992.88
2023-02-25T00:07:43.285Z,992.81
2023-02-25T00:08:43.255Z,992.76
2023-02-25T00:09:43.217Z,992.77
2023-02-25T00:10:43.226Z,992.73
2023-02-25T00:11:43.176Z,992.77
2023-02-25T00:12:43.114Z,992.64
2023-02-25T00:13:43.084Z,992.74
2023-02-25T00:14:43.045Z,992.7
2023-02-25T00:15:43.009Z,992.68
2023-02-25T00:16:43.032Z,992.75
2023-02-25T00:17:42.941Z,992.77
2023-02-25T00:18:42.905Z,992.79
2023-02-25T00:19:42.877Z,992.79
2023-02-25T00:20:42.839Z,992.78
2023-02-25T00:21:42.810Z,992.81
2023-02-25T00:22:42.780Z,992.81
2023-02-25T00:23:42.734Z,992.79
2023-02-25T00:24:42.700Z,992.79
2023-02-25T00:25:42.668Z,992.81
2023-02-25T00:26:42.671Z,992.77
2023-02-25T00:27:42.597Z,992.79
2023-02-25T00:28:42.562Z,992.77
2023-02-25T00:29:42.527Z,992.81
2023-02-25T00:30:42.681Z,992.71
2023-02-25T00:31:42.686Z,992.65
2023-02-25T00:32:42.496Z,992.7
2023-02-25T00:33:42.471Z,992.66
2023-02-25T00:34:42.356Z,992.62
2023-02-25T00:35:42.322Z,992.73
2023-02-25T00:36:42.317Z,992.64
2023-02-25T00:37:42.252Z,992.59
2023-02-25T00:38:42.220Z,992.54
2023-02-25T00:39:42.323Z,992.53
2023-02-25T00:40:42.154Z,992.55
2023-02-25T00:41:42.114Z,992.64
2023-02-25T00:42:42.103Z,992.59
2023-02-25T00:43:42.060Z,992.63
2023-02-25T00:44:42.024Z,992.63
2023-02-25T00:45:41.984Z,992.74
2023-02-25T00:46:41.986Z,992.74
2023-02-25T00:47:41.912Z,992.69
2023-02-25T00:48:41.874Z,992.7
2023-02-25T00:49:41.845Z,992.64
2023-02-25T00:50:41.806Z,992.64
2023-02-25T00:51:41.782Z,992.58
2023-02-25T00:52:41.735Z,992.6
2023-02-25T00:53:41.703Z,992.58
2023-02-25T00:54:41.668Z,992.6
2023-02-25T00:55:41.635Z,992.62
2023-02-25T00:56:41.608Z,992.65
2023-02-25T00:57:41.566Z,992.68
2023-02-25T00:58:41.553Z,992.73
2023-02-25T00:59:41.497Z,992.66
2023-02-25T01:00:51.228Z,992.75
2023-02-25T01:01:41.437Z,992.78
2023-02-25T01:02:41.429Z,992.8
2023-02-25T01:03:41.386Z,992.82
2023-02-25T01:04:41.321Z,992.77
2023-02-25T01:05:41.292Z,992.79
2023-02-25T01:06:41.252Z,992.74
2023-02-25T01:07:41.223Z,992.8
2023-02-25T01:08:41.182Z,992.81
2023-02-25T01:09:41.152Z,992.85
2023-02-25T01:10:41.112Z,992.86
2023-02-25T01:11:41.081Z,992.81
2023-02-25T01:12:41.050Z,992.77
2023-02-25T01:13:41.059Z,992.78
2023-02-25T01:14:40.996Z,992.74
2023-02-25T01:15:40.978Z,992.78
2023-02-25T01:16:40.907Z,992.84
2023-02-25T01:17:40.883Z,992.74
2023-02-25T01:18:40.832Z,992.76
2023-02-25T01:19:40.829Z,992.73
2023-02-25T01:20:40.845Z,992.7
2023-02-25T01:21:40.758Z,992.67
2023-02-25T01:22:40.695Z,992.68
2023-02-25T01:23:40.664Z,992.7
2023-02-25T01:24:40.629Z,992.71
2023-02-25T01:25:40.607Z,992.76
2023-02-25T01:26:40.559Z,992.76
2023-02-25T01:27:40.533Z,992.75
2023-02-25T01:28:40.493Z,992.72
2023-02-25T01:29:40.506Z,992.77
2023-02-25T01:30:40.455Z,992.7
2023-02-25T01:31:40.683Z,992.68
2023-02-25T01:32:40.582Z,992.75
2023-02-25T01:33:40.319Z,992.78
2023-02-25T01:34:40.283Z,992.71
2023-02-25T01:35:40.248Z,992.75
2023-02-25T01:36:40.215Z,992.72
2023-02-25T01:37:40.181Z,992.75
2023-02-25T01:38:40.147Z,992.73
2023-02-25T01:39:40.110Z,992.73
2023-02-25T01:40:40.078Z,992.72
2023-02-25T01:41:40.050Z,992.72
2023-02-25T01:42:40.011Z,992.73
2023-02-25T01:43:39.978Z,992.82
2023-02-25T01:44:39.944Z,992.67
2023-02-25T01:45:39.908Z,992.75
2023-02-25T01:46:39.960Z,992.68
2023-02-25T01:47:39.836Z,992.73
2023-02-25T01:48:39.809Z,992.84
2023-02-25T01:49:39.768Z,992.78
2023-02-25T01:50:39.737Z,992.75
2023-02-25T01:51:39.699Z,992.78
2023-02-25T01:52:39.667Z,992.82
2023-02-25T01:53:39.631Z,992.86
2023-02-25T01:54:39.600Z,992.76
2023-02-25T01:55:39.564Z,992.8
2023-02-25T01:56:39.529Z,992.8
2023-02-25T01:57:39.498Z,992.77
2023-02-25T01:58:39.462Z,992.75
2023-02-25T01:59:39.428Z,992.74
2023-02-25T02:00:39.417Z,992.98
2023-02-25T02:01:39.360Z,992.81
2023-02-25T02:02:39.391Z,992.79
2023-02-25T02:03:39.287Z,992.76
2023-02-25T02:04:39.255Z,992.83
2023-02-25T02:05:39.240Z,992.78
2023-02-25T02:06:39.186Z,992.85
2023-02-25T02:07:39.151Z,992.7
2023-02-25T02:08:39.118Z,992.73
2023-02-25T02:09:39.082Z,992.7
2023-02-25T02:10:39.049Z,992.74
2023-02-25T02:11:39.011Z,992.72
2023-02-25T02:12:38.980Z,992.66
2023-02-25T02:13:38.941Z,992.72
2023-02-25T02:14:38.911Z,992.69
2023-02-25T02:15:38.873Z,992.73
2023-02-25T02:16:38.912Z,992.74
2023-02-25T02:17:38.805Z,992.7
2023-02-25T02:18:38.798Z,992.71
2023-02-25T02:19:38.736Z,992.72
2023-02-25T02:20:38.705Z,992.71
2023-02-25T02:21:38.666Z,992.82
2023-02-25T02:22:38.635Z,992.89
2023-02-25T02:23:38.598Z,992.81
2023-02-25T02:24:38.569Z,992.79
2023-02-25T02:25:38.530Z,992.87
2023-02-25T02:26:38.501Z,992.85
2023-02-25T02:27:38.461Z,992.77
2023-02-25T02:28:38.435Z,992.82
2023-02-25T02:29:38.415Z,992.79
2023-02-25T02:30:38.359Z,992.89
2023-02-25T02:31:38.408Z,992.84
2023-02-25T02:32:38.355Z,992.86
2023-02-25T02:33:38.254Z,992.84
2023-02-25T02:34:38.243Z,992.8
2023-02-25T02:35:38.184Z,992.89
2023-02-25T02:36:38.152Z,992.82
2023-02-25T02:37:38.116Z,992.76
2023-02-25T02:38:38.089Z,992.77
2023-02-25T02:39:38.046Z,992.78
2023-02-25T02:40:38.044Z,992.79
2023-02-25T02:41:37.976Z,992.72
2023-02-25T02:42:37.940Z,992.75
2023-02-25T02:43:37.911Z,992.71
2023-02-25T02:44:37.879Z,992.73
2023-02-25T02:45:37.868Z,992.8
2023-02-25T02:46:37.799Z,992.81
2023-02-25T02:47:37.776Z,992.8
2023-02-25T02:48:37.728Z,992.77
2023-02-25T02:49:37.693Z,992.76
2023-02-25T02:50:37.682Z,992.79
2023-02-25T02:51:37.634Z,992.81
2023-02-25T02:52:37.590Z,992.8
2023-02-25T02:53:37.554Z,992.8
2023-02-25T02:54:37.523Z,992.78
2023-02-25T02:55:37.485Z,992.71
2023-02-25T02:56:37.447Z,992.76
2023-02-25T02:57:37.414Z,992.71
2023-02-25T02:58:37.377Z,992.7
2023-02-25T02:59:37.418Z,992.74
2023-02-25T03:00:37.307Z,992.73
2023-02-25T03:01:37.272Z,992.73
2023-02-25T03:02:37.238Z,992.77
2023-02-25T03:03:37.385Z,992.79
2023-02-25T03:04:37.167Z,992.84
2023-02-25T03:05:37.134Z,992.82
2023-02-25T03:06:37.126Z,992.77
2023-02-25T03:07:37.065Z,992.81
2023-02-25T03:08:37.028Z,992.8
2023-02-25T03:09:36.996Z,992.84
2023-02-25T03:10:36.972Z,992.81
2023-02-25T03:11:36.935Z,992.84
2023-02-25T03:12:36.889Z,992.85
2023-02-25T03:13:36.855Z,992.8
2023-02-25T03:14:36.818Z,992.81
2023-02-25T03:15:36.800Z,992.81
2023-02-25T03:16:36.791Z,992.76
2023-02-25T03:17:36.723Z,992.91
2023-02-25T03:18:39.039Z,992.83
2023-02-25T03:19:36.647Z,992.86
2023-02-25T03:20:36.621Z,992.85
2023-02-25T03:21:36.580Z,992.91
2023-02-25T03:22:36.597Z,992.87
2023-02-25T03:23:36.510Z,992.91
2023-02-25T03:24:36.480Z,992.93
2023-02-25T03:25:36.442Z,992.92
2023-02-25T03:26:36.414Z,992.85
2023-02-25T03:27:36.376Z,992.87
2023-02-25T03:28:36.339Z,992.92
2023-02-25T03:29:36.304Z,992.89
2023-02-25T03:30:36.306Z,992.98
2023-02-25T03:31:36.286Z,992.91
2023-02-25T03:32:37.471Z,992.92
2023-02-25T03:33:36.166Z,992.97
2023-02-25T03:34:36.153Z,992.98
2023-02-25T03:35:36.099Z,992.95
2023-02-25T03:36:36.069Z,992.94
2023-02-25T03:37:36.035Z,993
2023-02-25T03:38:36.019Z,992.96
2023-02-25T03:39:35.960Z,992.97
2023-02-25T03:40:35.926Z,992.91
2023-02-25T03:41:35.889Z,993
2023-02-25T03:42:35.857Z,992.97
2023-02-25T03:43:35.821Z,992.94
2023-02-25T03:44:35.786Z,992.91
2023-02-25T03:45:35.755Z,992.99
2023-02-25T03:46:35.719Z,992.91
2023-02-25T03:47:35.704Z,992.96
2023-02-25T03:48:35.648Z,992.91
2023-02-25T03:49:35.613Z,992.97
2023-02-25T03:50:35.581Z,993.01
2023-02-25T03:51:35.544Z,993.01
2023-02-25T03:52:35.509Z,993.02
2023-02-25T03:53:35.607Z,993.03
2023-02-25T03:54:35.466Z,993.01
2023-02-25T03:55:35.404Z,993.01
2023-02-25T03:56:35.370Z,993.01
2023-02-25T03:57:35.334Z,993.03
2023-02-25T03:58:35.301Z,992.97
2023-02-25T03:59:35.283Z,993.01
2023-02-25T04:00:35.230Z,993
2023-02-25T04:01:35.194Z,993.05
2023-02-25T04:02:35.230Z,993.06
2023-02-25T04:03:35.127Z,993.06
2023-02-25T04:04:35.138Z,993.07
2023-02-25T04:05:35.054Z,993.12
2023-02-25T04:06:35.019Z,993.13
2023-02-25T04:07:34.985Z,993.15
2023-02-25T04:08:34.948Z,993.07
2023-02-25T04:09:34.918Z,993.2
2023-02-25T04:10:34.904Z,993.14
2023-02-25T04:11:34.845Z,993.19
2023-02-25T04:12:34.836Z,993.15
2023-02-25T04:13:34.779Z,993.09
2023-02-25T04:14:34.740Z,993.2
2023-02-25T04:15:34.716Z,993.16
2023-02-25T04:16:34.673Z,993.18
2023-02-25T04:17:34.669Z,993.15
2023-02-25T04:18:34.602Z,993.27
2023-02-25T04:19:34.569Z,993.2
2023-02-25T04:20:34.557Z,993.3
2023-02-25T04:21:34.503Z,993.24
2023-02-25T04:22:34.531Z,993.24
2023-02-25T04:23:34.515Z,993.25
2023-02-25T04:24:34.392Z,993.28
2023-02-25T04:25:34.363Z,993.28
2023-02-25T04:26:34.358Z,993.29
2023-02-25T04:27:34.294Z,993.25
2023-02-25T04:28:34.259Z,993.27
2023-02-25T04:29:34.222Z,993.25
2023-02-25T04:30:34.515Z,993.26
2023-02-25T04:31:34.262Z,993.21
2023-02-25T04:32:34.204Z,993.21
2023-02-25T04:33:34.085Z,993.13
2023-02-25T04:34:34.049Z,993.13
2023-02-25T04:35:34.018Z,993.15
2023-02-25T04:36:33.981Z,993.15
2023-02-25T04:37:33.949Z,993.18
2023-02-25T04:38:33.911Z,993.21
2023-02-25T04:39:33.876Z,993.27
2023-02-25T04:40:33.841Z,993.32
2023-02-25T04:41:33.809Z,993.25
2023-02-25T04:42:33.795Z,993.26
2023-02-25T04:43:33.739Z,993.22
2023-02-25T04:44:33.703Z,993.34
2023-02-25T04:45:33.670Z,993.32
2023-02-25T04:46:33.637Z,993.37
2023-02-25T04:47:33.633Z,993.35
2023-02-25T04:48:33.565Z,993.36
2023-02-25T04:49:33.533Z,993.38
2023-02-25T04:50:33.495Z,993.41
2023-02-25T04:51:33.463Z,993.4
2023-02-25T04:52:33.432Z,993.28
2023-02-25T04:53:33.398Z,993.39
2023-02-25T04:54:33.356Z,993.33
2023-02-25T04:55:33.329Z,993.28
2023-02-25T04:56:33.288Z,993.42
2023-02-25T04:57:33.257Z,993.31
2023-02-25T04:58:33.292Z,993.28
2023-02-25T04:59:33.184Z,993.32
2023-02-25T05:00:33.150Z,993.33
2023-02-25T05:01:33.129Z,993.36
2023-02-25T05:02:33.088Z,993.31
2023-02-25T05:03:33.046Z,993.37
2023-02-25T05:04:33.044Z,993.36
2023-02-25T05:05:32.978Z,993.34
2023-02-25T05:06:32.947Z,993.34
2023-02-25T05:07:32.908Z,993.33
2023-02-25T05:08:32.877Z,993.3
2023-02-25T05:09:32.839Z,993.41
2023-02-25T05:10:32.819Z,993.34
2023-02-25T05:11:32.773Z,993.36
2023-02-25T05:12:32.739Z,993.27
2023-02-25T05:13:32.701Z,993.3
2023-02-25T05:14:33.082Z,993.31
2023-02-25T05:15:32.633Z,993.32
2023-02-25T05:16:32.641Z,993.22
2023-02-25T05:17:32.565Z,993.32
2023-02-25T05:18:32.547Z,993.35
2023-02-25T05:19:32.497Z,993.29
2023-02-25T05:20:32.566Z,993.28
2023-02-25T05:21:32.426Z,993.19
2023-02-25T05:22:32.395Z,993.29
2023-02-25T05:23:32.356Z,993.3
2023-02-25T05:24:32.325Z,993.29
2023-02-25T05:25:32.289Z,993.28
2023-02-25T05:26:32.256Z,993.28
2023-02-25T05:27:32.217Z,993.32
2023-02-25T05:28:32.191Z,993.33
2023-02-25T05:29:32.167Z,993.32
2023-02-25T05:30:32.140Z,993.29
2023-02-25T05:31:32.168Z,993.3
2023-02-25T05:32:32.289Z,993.35
2023-02-25T05:33:32.014Z,993.34
2023-02-25T05:34:31.978Z,993.34
2023-02-25T05:35:31.943Z,993.31
2023-02-25T05:36:31.923Z,993.32
2023-02-25T05:37:31.877Z,993.31
2023-02-25T05:38:31.842Z,993.28
2023-02-25T05:39:31.804Z,993.25
2023-02-25T05:40:31.779Z,993.22
2023-02-25T05:41:31.739Z,993.24
2023-02-25T05:42:31.700Z,993.21
2023-02-25T05:43:31.668Z,993.22
2023-02-25T05:44:31.632Z,993.27
2023-02-25T05:45:31.594Z,993.28
2023-02-25T05:46:31.627Z,993.26
2023-02-25T05:47:31.528Z,993.28
2023-02-25T05:48:31.490Z,993.26
2023-02-25T05:49:31.457Z,993.29
2023-02-25T05:50:31.421Z,993.29
2023-02-25T05:51:31.387Z,993.24
2023-02-25T05:52:31.354Z,993.26
2023-02-25T05:53:31.319Z,993.31
2023-02-25T05:54:31.284Z,993.36
2023-02-25T05:55:31.248Z,993.34
2023-02-25T05:56:32.345Z,993.32
2023-02-25T05:57:31.180Z,993.31
2023-02-25T05:58:31.142Z,993.34
2023-02-25T05:59:31.108Z,993.31
2023-02-25T06:00:31.075Z,993.38
2023-02-25T06:01:31.043Z,993.28
2023-02-25T06:02:31.029Z,993.32
2023-02-25T06:03:31.018Z,993.35
2023-02-25T06:04:30.946Z,993.47
2023-02-25T06:05:30.904Z,993.36
2023-02-25T06:06:30.864Z,993.32
2023-02-25T06:07:30.844Z,993.41
2023-02-25T06:08:30.798Z,993.48
2023-02-25T06:09:30.761Z,993.4
2023-02-25T06:10:30.724Z,993.47
2023-02-25T06:11:30.690Z,993.45
2023-02-25T06:12:30.657Z,993.48
2023-02-25T06:13:30.623Z,993.46
2023-02-25T06:14:30.586Z,993.52
2023-02-25T06:15:30.562Z,993.5
2023-02-25T06:16:30.580Z,993.55
2023-02-25T06:17:30.485Z,993.51
2023-02-25T06:18:30.472Z,993.46
2023-02-25T06:19:30.416Z,993.5
2023-02-25T06:20:30.379Z,993.49
2023-02-25T06:21:30.359Z,993.51
2023-02-25T06:22:30.308Z,993.54
2023-02-25T06:23:30.276Z,993.54
2023-02-25T06:24:30.239Z,993.55
2023-02-25T06:25:30.213Z,993.52
2023-02-25T06:26:30.171Z,993.54
2023-02-25T06:27:30.136Z,993.56
2023-02-25T06:28:30.105Z,993.61
2023-02-25T06:29:30.068Z,993.74
2023-02-25T06:30:30.119Z,993.63
2023-02-25T06:31:30.059Z,993.7
2023-02-25T06:32:30.196Z,993.67
2023-02-25T06:33:29.933Z,993.65
2023-02-25T06:34:29.917Z,993.63
2023-02-25T06:35:29.860Z,993.57
2023-02-25T06:36:29.823Z,993.53
2023-02-25T06:37:29.910Z,993.62
2023-02-25T06:38:29.755Z,993.83
2023-02-25T06:39:29.724Z,993.69
2023-02-25T06:40:29.690Z,993.63
2023-02-25T06:41:29.651Z,993.68
2023-02-25T06:42:29.621Z,993.62
2023-02-25T06:43:29.593Z,993.68
2023-02-25T06:44:29.560Z,993.68
2023-02-25T06:45:29.523Z,993.73
2023-02-25T06:46:29.644Z,993.82
2023-02-25T06:47:29.445Z,993.77
2023-02-25T06:48:29.410Z,993.84
2023-02-25T06:49:29.378Z,993.82
2023-02-25T06:50:29.368Z,993.69
2023-02-25T06:51:29.308Z,993.98
2023-02-25T06:52:29.273Z,993.87
2023-02-25T06:53:29.236Z,993.89
2023-02-25T06:54:29.207Z,993.95
2023-02-25T06:55:29.167Z,993.99
2023-02-25T06:56:29.148Z,993.92
2023-02-25T06:57:29.099Z,993.88
2023-02-25T06:58:29.073Z,993.98
2023-02-25T06:59:29.027Z,993.96
2023-02-25T07:00:28.996Z,993.97
2023-02-25T07:01:29.002Z,994.05
2023-02-25T07:02:28.941Z,994.04
2023-02-25T07:03:28.895Z,994.01
2023-02-25T07:04:28.924Z,993.99
2023-02-25T07:05:28.831Z,993.97
2023-02-25T07:06:28.819Z,993.97
2023-02-25T07:07:28.751Z,993.96
2023-02-25T07:08:28.721Z,994.02
2023-02-25T07:09:28.683Z,993.97
2023-02-25T07:10:28.663Z,993.97
2023-02-25T07:11:28.617Z,994.02
2023-02-25T07:12:28.579Z,994.08
2023-02-25T07:13:28.544Z,994.11
2023-02-25T07:14:28.509Z,994.16
2023-02-25T07:15:28.471Z,994.17
2023-02-25T07:16:28.446Z,994.18
2023-02-25T07:17:28.409Z,994.18
2023-02-25T07:18:28.386Z,994.2
2023-02-25T07:19:28.342Z,994.28
2023-02-25T07:20:28.387Z,994.25
2023-02-25T07:21:28.267Z,994.22
2023-02-25T07:22:28.258Z,994.21
2023-02-25T07:23:28.196Z,994.22
2023-02-25T07:24:28.163Z,994.25
2023-02-25T07:25:28.219Z,994.25
2023-02-25T07:26:28.100Z,994.25
2023-02-25T07:27:28.060Z,994.38
2023-02-25T07:28:28.026Z,994.29
2023-02-25T07:29:28.003Z,994.31
2023-02-25T07:30:27.958Z,994.25
2023-02-25T07:31:28.497Z,994.31
2023-02-25T07:32:28.049Z,994.29
2023-02-25T07:33:27.855Z,994.32
2023-02-25T07:34:27.819Z,994.27
2023-02-25T07:35:27.799Z,994.27
2023-02-25T07:36:27.750Z,994.31
2023-02-25T07:37:27.723Z,994.27
2023-02-25T07:38:27.708Z,994.34
2023-02-25T07:39:27.648Z,994.34
2023-02-25T07:40:27.618Z,994.42
2023-02-25T07:41:27.582Z,994.44
2023-02-25T07:42:27.547Z,994.47
2023-02-25T07:43:27.515Z,994.44
2023-02-25T07:44:27.479Z,994.5
2023-02-25T07:45:27.447Z,994.48
2023-02-25T07:46:27.477Z,994.51
2023-02-25T07:47:27.378Z,994.44
2023-02-25T07:48:27.343Z,994.47
2023-02-25T07:49:27.308Z,994.46
2023-02-25T07:50:27.290Z,994.44
2023-02-25T07:51:27.337Z,994.47
2023-02-25T07:52:27.215Z,994.49
2023-02-25T07:53:27.173Z,994.45
2023-02-25T07:54:27.183Z,994.46
2023-02-25T07:55:27.167Z,994.5
2023-02-25T07:56:27.071Z,994.55
2023-02-25T07:57:27.038Z,994.61
2023-02-25T07:58:27.003Z,994.63
2023-02-25T07:59:26.972Z,994.54
2023-02-25T08:00:26.965Z,994.6
2023-02-25T08:01:26.904Z,994.59
2023-02-25T08:02:26.958Z,994.57
2023-02-25T08:03:26.855Z,994.59
2023-02-25T08:04:26.850Z,994.62
2023-02-25T08:05:26.773Z,994.62
2023-02-25T08:06:26.730Z,994.63
2023-02-25T08:07:27.800Z,994.62
2023-02-25T08:08:26.665Z,994.67
2023-02-25T08:09:26.630Z,994.64
2023-02-25T08:10:26.620Z,994.75
2023-02-25T08:11:26.796Z,994.74
2023-02-25T08:12:26.528Z,994.78
2023-02-25T08:13:26.496Z,994.73
2023-02-25T08:14:26.461Z,994.8
2023-02-25T08:15:26.431Z,994.78
2023-02-25T08:16:26.393Z,994.75
2023-02-25T08:17:26.363Z,994.79
2023-02-25T08:18:26.353Z,994.89
2023-02-25T08:19:26.295Z,994.77
2023-02-25T08:20:26.285Z,994.83
2023-02-25T08:21:26.590Z,994.84
2023-02-25T08:22:26.202Z,994.81
2023-02-25T08:23:26.160Z,994.87
2023-02-25T08:24:26.127Z,994.85
2023-02-25T08:25:26.117Z,994.85
2023-02-25T08:26:26.090Z,994.93
2023-02-25T08:27:26.029Z,994.82
2023-02-25T08:28:25.994Z,994.9
2023-02-25T08:29:25.958Z,994.82
2023-02-25T08:30:25.992Z,994.84
2023-02-25T08:31:26.321Z,994.87
2023-02-25T08:32:26.005Z,994.89
2023-02-25T08:33:25.831Z,994.92
2023-02-25T08:34:25.802Z,994.9
2023-02-25T08:35:25.761Z,994.88
2023-02-25T08:36:25.740Z,994.89
2023-02-25T08:37:25.704Z,994.9
2023-02-25T08:38:25.664Z,994.88
2023-02-25T08:39:25.641Z,994.87
2023-02-25T08:40:25.674Z,994.94
2023-02-25T08:41:25.844Z,994.93
2023-02-25T08:42:25.569Z,994.9
2023-02-25T08:43:25.501Z,994.96
2023-02-25T08:44:25.468Z,994.95
2023-02-25T08:45:25.431Z,994.92
2023-02-25T08:46:25.429Z,994.95
2023-02-25T08:47:25.363Z,994.96
2023-02-25T08:48:25.335Z,994.95
2023-02-25T08:49:25.301Z,994.97
2023-02-25T08:50:25.290Z,995.03
2023-02-25T08:51:25.512Z,994.99
2023-02-25T08:52:25.200Z,995.03
2023-02-25T08:53:25.171Z,995
2023-02-25T08:54:25.132Z,995.01
2023-02-25T08:55:25.104Z,994.97
2023-02-25T08:56:25.065Z,995.06
2023-02-25T08:57:25.032Z,995
2023-02-25T08:58:25.028Z,995.03
2023-02-25T08:59:24.965Z,995.07
2023-02-25T09:00:24.936Z,995.03
2023-02-25T09:01:25.275Z,995
2023-02-25T09:02:24.867Z,995.1
2023-02-25T09:03:24.839Z,995.06
2023-02-25T09:04:24.882Z,995.08
2023-02-25T09:05:24.768Z,995.07
2023-02-25T09:06:24.733Z,995.12
2023-02-25T09:07:24.699Z,995.12
2023-02-25T09:08:24.667Z,995.14
2023-02-25T09:09:24.633Z,995.18
2023-02-25T09:10:24.603Z,995.11
2023-02-25T09:11:24.909Z,995.16
2023-02-25T09:12:24.910Z,995.17
2023-02-25T09:13:24.501Z,995.24
2023-02-25T09:14:24.494Z,995.18
2023-02-25T09:15:24.437Z,995.2
2023-02-25T09:16:24.426Z,995.28
2023-02-25T09:17:24.376Z,995.3
2023-02-25T09:18:24.340Z,995.38
2023-02-25T09:19:24.318Z,995.4
2023-02-25T09:20:24.270Z,995.65
2023-02-25T09:21:24.533Z,995.55
2023-02-25T09:22:24.209Z,995.4
2023-02-25T09:23:24.174Z,995.45
2023-02-25T09:24:24.138Z,995.49
2023-02-25T09:25:24.107Z,995.44
2023-02-25T09:26:24.073Z,995.4
2023-02-25T09:27:24.040Z,995.43
2023-02-25T09:28:24.623Z,995.54
2023-02-25T09:29:23.974Z,995.53
2023-02-25T09:30:24.035Z,995.57
2023-02-25T09:31:24.253Z,995.59
2023-02-25T09:32:23.988Z,995.62
2023-02-25T09:33:23.838Z,995.59
2023-02-25T09:34:23.799Z,995.56
2023-02-25T09:35:23.771Z,995.58
2023-02-25T09:36:23.731Z,995.56
2023-02-25T09:37:23.698Z,995.6
2023-02-25T09:38:23.666Z,995.57
2023-02-25T09:39:23.634Z,995.56
2023-02-25T09:40:23.602Z,995.62
2023-02-25T09:41:23.765Z,995.68
2023-02-25T09:42:23.527Z,995.67
2023-02-25T09:43:23.496Z,995.62
2023-02-25T09:44:23.466Z,995.62
2023-02-25T09:45:23.433Z,995.58
2023-02-25T09:46:23.508Z,995.61
2023-02-25T09:47:23.438Z,995.66
2023-02-25T09:48:23.329Z,995.65
2023-02-25T09:49:23.296Z,995.6
2023-02-25T09:50:23.263Z,995.65
2023-02-25T09:51:23.554Z,995.61
2023-02-25T09:52:23.218Z,995.67
2023-02-25T09:53:23.183Z,995.69
2023-02-25T09:54:23.129Z,995.68
2023-02-25T09:55:23.100Z,995.73
2023-02-25T09:56:23.072Z,995.88
2023-02-25T09:57:23.033Z,995.78
2023-02-25T09:58:23.003Z,995.71
2023-02-25T09:59:22.969Z,995.72
2023-02-25T10:00:22.937Z,995.83
2023-02-25T10:01:23.182Z,995.77
2023-02-25T10:02:22.997Z,995.87
2023-02-25T10:03:22.897Z,995.76
2023-02-25T10:04:22.804Z,995.79
2023-02-25T10:05:22.886Z,995.77
2023-02-25T10:06:22.739Z,995.83
2023-02-25T10:07:22.702Z,995.86
2023-02-25T10:08:22.671Z,995.92
2023-02-25T10:09:22.638Z,995.93
2023-02-25T10:10:22.616Z,995.92
2023-02-25T10:11:22.862Z,995.98
2023-02-25T10:12:22.541Z,996
2023-02-25T10:13:22.507Z,996.2
2023-02-25T10:14:22.476Z,996.81
2023-02-25T10:15:22.443Z,996.75
2023-02-25T10:16:22.464Z,996.63
2023-02-25T10:17:22.377Z,996.36
2023-02-25T10:18:22.378Z,996.46
2023-02-25T10:19:22.310Z,996.35
2023-02-25T10:20:22.278Z,996.48
2023-02-25T10:21:22.567Z,996.48
2023-02-25T10:22:22.210Z,996.45
2023-02-25T10:23:22.175Z,996.36
2023-02-25T10:24:22.141Z,996.39
2023-02-25T10:25:22.106Z,996.38
2023-02-25T10:26:22.075Z,996.35
2023-02-25T10:27:22.041Z,996.38
2023-02-25T10:28:22.007Z,996.34
2023-02-25T10:29:21.967Z,996.38
2023-02-25T10:30:21.933Z,996.33
2023-02-25T10:31:22.390Z,996.28
2023-02-25T10:32:21.937Z,996.35
2023-02-25T10:33:21.826Z,996.38
2023-02-25T10:34:21.825Z,996.37
2023-02-25T10:35:21.758Z,996.39
2023-02-25T10:36:21.725Z,996.32
2023-02-25T10:37:21.687Z,996.27
2023-02-25T10:38:21.653Z,996.31
2023-02-25T10:39:21.617Z,996.38
2023-02-25T10:40:21.591Z,996.35
2023-02-25T10:41:21.751Z,996.38
2023-02-25T10:42:21.513Z,996.51
2023-02-25T10:43:21.480Z,996.4
2023-02-25T10:44:21.518Z,996.42
2023-02-25T10:45:21.408Z,996.44
2023-02-25T10:46:21.396Z,996.43
2023-02-25T10:47:21.338Z,996.43
2023-02-25T10:48:21.316Z,996.44
2023-02-25T10:49:21.269Z,996.4
2023-02-25T10:50:22.167Z,996.5
2023-02-25T10:51:21.493Z,996.47
2023-02-25T10:52:21.168Z,996.53
2023-02-25T10:53:23.168Z,996.52
2023-02-25T10:54:21.095Z,996.5
2023-02-25T10:55:21.060Z,996.57
2023-02-25T10:56:21.041Z,996.54
2023-02-25T10:57:21.001Z,996.52
2023-02-25T10:58:20.957Z,996.57
2023-02-25T10:59:20.924Z,996.55
2023-02-25T11:00:20.886Z,996.55
2023-02-25T11:01:20.947Z,996.69
2023-02-25T11:02:20.839Z,996.69
2023-02-25T11:03:20.783Z,996.58
2023-02-25T11:04:20.751Z,996.55
2023-02-25T11:05:20.716Z,996.6
2023-02-25T11:06:23.089Z,996.53
2023-02-25T11:07:20.646Z,996.48
2023-02-25T11:08:20.609Z,996.52
2023-02-25T11:09:20.624Z,996.47
2023-02-25T11:10:20.550Z,996.4
2023-02-25T11:11:20.546Z,996.49
2023-02-25T11:12:20.478Z,996.55
2023-02-25T11:13:20.444Z,996.44
2023-02-25T11:14:20.408Z,996.42
2023-02-25T11:15:20.375Z,996.46
2023-02-25T11:16:20.460Z,996.48
2023-02-25T11:17:20.349Z,996.46
2023-02-25T11:18:20.275Z,996.51
2023-02-25T11:19:20.242Z,996.4
2023-02-25T11:20:20.207Z,996.41
2023-02-25T11:21:20.177Z,996.47
2023-02-25T11:22:20.164Z,996.4
2023-02-25T11:23:20.158Z,996.42
2023-02-25T11:24:20.095Z,996.39
2023-02-25T11:25:20.058Z,996.43
2023-02-25T11:26:20.010Z,996.39
2023-02-25T11:27:19.982Z,996.45
2023-02-25T11:28:19.941Z,996.4
2023-02-25T11:29:19.912Z,996.46
2023-02-25T11:30:19.883Z,996.43
2023-02-25T11:31:19.993Z,996.86
2023-02-25T11:32:19.864Z,996.61
2023-02-25T11:33:19.797Z,996.52
2023-02-25T11:34:19.770Z,996.54
2023-02-25T11:35:19.731Z,996.52
2023-02-25T11:36:19.689Z,996.53
2023-02-25T11:37:19.649Z,996.57
2023-02-25T11:38:19.644Z,996.75
2023-02-25T11:39:19.587Z,996.61
2023-02-25T11:40:19.622Z,996.57
2023-02-25T11:41:19.515Z,996.58
2023-02-25T11:42:19.484Z,996.64
2023-02-25T11:43:19.458Z,996.74
2023-02-25T11:44:19.420Z,996.7
2023-02-25T11:45:19.385Z,996.86
2023-02-25T11:46:19.420Z,996.71
2023-02-25T11:47:19.316Z,996.64
2023-02-25T11:48:19.281Z,996.61
2023-02-25T11:49:19.248Z,996.64
2023-02-25T11:50:19.216Z,996.65
2023-02-25T11:51:19.181Z,996.69
2023-02-25T11:52:19.150Z,996.78
2023-02-25T11:53:19.150Z,996.82
2023-02-25T11:54:19.116Z,996.77
2023-02-25T11:55:19.053Z,996.63
2023-02-25T11:56:19.018Z,996.68
2023-02-25T11:57:18.985Z,996.73
2023-02-25T11:58:18.961Z,996.73
2023-02-25T11:59:18.919Z,996.76
2023-02-25T12:00:18.888Z,996.75
2023-02-25T12:01:18.857Z,996.65
2023-02-25T12:02:18.822Z,996.8
2023-02-25T12:03:18.788Z,996.95
2023-02-25T12:04:18.757Z,996.89
2023-02-25T12:05:18.748Z,996.9
2023-02-25T12:06:18.692Z,996.73
2023-02-25T12:07:18.657Z,996.82
2023-02-25T12:08:18.632Z,996.76
2023-02-25T12:09:18.593Z,996.79
2023-02-25T12:10:18.679Z,996.79
2023-02-25T12:11:18.532Z,996.76
2023-02-25T12:12:18.495Z,996.82
2023-02-25T12:13:18.485Z,996.86
2023-02-25T12:14:18.430Z,996.97
2023-02-25T12:15:18.396Z,996.88
2023-02-25T12:16:18.429Z,996.85
2023-02-25T12:17:18.331Z,996.86
2023-02-25T12:18:18.301Z,996.97
2023-02-25T12:19:18.264Z,996.9
2023-02-25T12:20:18.239Z,997.04
2023-02-25T12:21:18.200Z,996.94
2023-02-25T12:22:18.172Z,996.9
2023-02-25T12:23:18.137Z,996.93
2023-02-25T12:24:18.105Z,996.83
2023-02-25T12:25:18.092Z,996.93
2023-02-25T12:26:18.068Z,997.17
2023-02-25T12:27:18.011Z,996.8
2023-02-25T12:28:17.976Z,996.86
2023-02-25T12:29:17.941Z,996.9
2023-02-25T12:30:17.909Z,997.08
2023-02-25T12:31:17.901Z,996.94